Stella Polaris — PEBD — position and weather

sailwx.info

Track history (hours):
 
Tides and Currents Weather Stations Pressure Air Temp Water Temp Dewpoint Dewpoint Depression Visibility Wind Speed Wind Dir Waves Ship Positions

Stella Polaris

Last reported at 2017-Apr-30 22:02 UTC. Time now 2017-Apr-30 22:39 UTC.
Position N 51°47' E 003°23'.

Length 117 m; draft 5.2 m.

Type: Ship (hazmat cat A). MMSI: 245911000.

Date/timePositionNaut miles runAvg speedWind from/ knotsBaromVisibWave heightAir tempDewpointWater temp
2017-Apr-30 22:02N 51°47' E 003°23'0 0.1
2017-Apr-30 21:56N 51°47' E 003°23'0 0.0
2017-Apr-30 07:56N 51°48' E 003°23'0 0.0
2017-Apr-30 07:29N 51°48' E 003°23'0 0.0
2017-Apr-30 06:44N 51°48' E 003°23'0 0.1
2017-Apr-30 06:29N 51°48' E 003°23'0 0.0
2017-Apr-30 05:56N 51°48' E 003°23'0 0.0
2017-Apr-30 05:20N 51°48' E 003°23'0 0.0
2017-Apr-30 04:53N 51°48' E 003°23'0 0.0
2017-Apr-30 04:14N 51°48' E 003°23'0 0.0
2017-Apr-30 03:09N 51°48' E 003°23'0 0.2
2017-Apr-30 02:54N 51°48' E 003°23'0 0.1
2017-Apr-30 00:33N 51°47' E 003°23'0 0.1
2017-Apr-30 00:30N 51°47' E 003°23'0 0.0
2017-Apr-29 23:57N 51°47' E 003°23'3 7.4
2017-Apr-29 23:30N 51°45' E 003°20'5 9.5
2017-Apr-29 22:57N 51°40' E 003°20'612.9
2017-Apr-29 22:30N 51°34' E 003°24'611.9
2017-Apr-29 22:00N 51°30' E 003°29'611.6
2017-Apr-29 21:30N 51°26' E 003°37'612.1
2017-Apr-29 21:00N 51°22' E 003°44'4 8.1
2017-Apr-29 20:30N 51°20' E 003°49'0 0.0
2017-Apr-29 20:00N 51°20' E 003°49'1 1.4
2017-Apr-29 19:30N 51°19' E 003°50'4 7.9
2017-Apr-29 19:00N 51°15' E 003°49'3 5.7
2017-Apr-29 18:30N 51°12' E 003°48'0 0.0
2017-Apr-29 17:54N 51°12' E 003°48'0 0.0
2017-Apr-29 16:18N 51°12' E 003°48'0 0.0
2017-Apr-29 16:00N 51°12' E 003°48'0 0.0
2017-Apr-29 15:16N 51°12' E 003°48'0 0.0
2017-Apr-29 14:52N 51°12' E 003°48'0 0.0
2017-Apr-29 13:58N 51°12' E 003°48'0 0.0
2017-Apr-29 13:16N 51°12' E 003°48'0 0.0
2017-Apr-29 12:46N 51°12' E 003°48'0 0.0
2017-Apr-29 12:28N 51°12' E 003°48'0 0.0
2017-Apr-29 11:58N 51°12' E 003°48'0 0.0
2017-Apr-29 11:22N 51°12' E 003°48'0 0.0
2017-Apr-29 10:16N 51°12' E 003°48'0 0.0
2017-Apr-29 09:58N 51°12' E 003°48'0 0.0
2017-Apr-29 09:28N 51°12' E 003°48'0 0.0
2017-Apr-29 08:46N 51°12' E 003°48'0 0.0
2017-Apr-29 08:28N 51°12' E 003°48'0 0.0
2017-Apr-29 07:46N 51°12' E 003°48'0 0.0
2017-Apr-29 07:28N 51°12' E 003°48'0 0.0
2017-Apr-29 06:58N 51°12' E 003°48'0 0.0
2017-Apr-29 06:16N 51°12' E 003°48'0 0.0
2017-Apr-29 05:52N 51°12' E 003°48'0 0.0
2017-Apr-29 04:22N 51°12' E 003°48'0 0.0
2017-Apr-29 04:00N 51°12' E 003°48'0 0.0
2017-Apr-29 03:10N 51°12' E 003°48'0 0.0
2017-Apr-29 02:52N 51°12' E 003°48'0 0.0
2017-Apr-29 02:22N 51°12' E 003°48'0 0.0
2017-Apr-29 01:58N 51°12' E 003°48'0 0.0
2017-Apr-29 01:28N 51°12' E 003°48'0 0.0
2017-Apr-29 00:58N 51°12' E 003°48'0 0.0
2017-Apr-29 00:28N 51°12' E 003°48'0 0.0
2017-Apr-28 23:52N 51°12' E 003°48'0 0.0
2017-Apr-28 23:22N 51°12' E 003°48'0 0.0
2017-Apr-28 22:40N 51°12' E 003°48'0 0.0
2017-Apr-28 22:22N 51°12' E 003°48'0 0.0
2017-Apr-28 21:58N 51°12' E 003°48'0 0.0
2017-Apr-28 21:22N 51°12' E 003°48'0 0.0
2017-Apr-28 20:52N 51°12' E 003°48'0 0.0
2017-Apr-28 20:16N 51°12' E 003°48'0 0.0
2017-Apr-28 19:58N 51°12' E 003°48'0 0.0
2017-Apr-28 19:22N 51°12' E 003°48'0 0.0
2017-Apr-28 18:46N 51°12' E 003°48'0 0.0
2017-Apr-28 18:04N 51°12' E 003°48'0 0.0
2017-Apr-28 17:34N 51°12' E 003°48'0 0.0
2017-Apr-28 17:16N 51°12' E 003°48'0 0.0
2017-Apr-28 16:50N 51°12' E 003°48'0 0.0
2017-Apr-28 16:28N 51°12' E 003°48'0 0.0
2017-Apr-28 13:52N 51°12' E 003°48'0 0.0
2017-Apr-28 13:22N 51°12' E 003°48'0 0.0
2017-Apr-28 12:52N 51°12' E 003°48'0 0.0
2017-Apr-28 12:28N 51°12' E 003°48'0 0.0
2017-Apr-28 11:58N 51°12' E 003°48'0 0.0
2017-Apr-27 12:15N 51°12' E 003°48'0 0.0
2017-Apr-27 12:00N 51°12' E 003°48'2 4.3
2017-Apr-27 11:30N 51°14' E 003°49'3 6.4
2017-Apr-27 10:59N 51°18' E 003°50'2 4.3
2017-Apr-27 10:30N 51°20' E 003°49'0 0.0
2017-Apr-27 10:00N 51°20' E 003°49'1 1.8
2017-Apr-27 09:21N 51°21' E 003°48'2 5.2
2017-Apr-27 09:00N 51°22' E 003°46'8 6.3
2017-Apr-27 07:43N 51°25' E 003°34'1 5.3
2017-Apr-27 07:30N 51°25' E 003°33'5 9.7
2017-Apr-27 07:00N 51°24' E 003°25'510.8
2017-Apr-27 06:30N 51°24' E 003°16'510.8
2017-Apr-27 06:00N 51°24' E 003°08'611.3
2017-Apr-27 05:30N 51°23' E 002°59'612.7
2017-Apr-27 05:00N 51°22' E 002°49'510.8
2017-Apr-27 04:30N 51°22' E 002°40'612.1
2017-Apr-27 04:00N 51°22' E 002°30'3 7.0
2017-Apr-27 03:30N 51°21' E 002°25'510.1
2017-Apr-27 03:00N 51°18' E 002°18'714.3
2017-Apr-27 02:30N 51°14' E 002°09'815.3
2017-Apr-27 02:00N 51°11' E 001°58'815.6
2017-Apr-27 01:30N 51°07' E 001°47'816.3
2017-Apr-27 01:01N 51°01' E 001°38'7314.5
2017-Apr-26 19:58N 50°20' E 000°02'  
Track history (hours):
 
Tides and Currents Weather Stations Pressure Air Temp Water Temp Dewpoint Dewpoint Depression Visibility Wind Speed Wind Dir Waves Ship Positions

Stella Polaris

Last reported at 2017-Apr-30 22:02 UTC. Time now 2017-Apr-30 22:39 UTC.
Position N 51°47' E 003°23'.

Length 117 m; draft 5.2 m.

Type: Ship (hazmat cat A). MMSI: 245911000.

Date/timePositionNaut miles runAvg speedWind from/ knotsBaromVisibWave heightAir tempDewpointWater temp
2017-Apr-30 22:02N 51°47' E 003°23'0 0.1
2017-Apr-30 21:56N 51°47' E 003°23'0 0.0
2017-Apr-30 07:56N 51°48' E 003°23'0 0.0
2017-Apr-30 07:29N 51°48' E 003°23'0 0.0
2017-Apr-30 06:44N 51°48' E 003°23'0 0.1
2017-Apr-30 06:29N 51°48' E 003°23'0 0.0
2017-Apr-30 05:56N 51°48' E 003°23'0 0.0
2017-Apr-30 05:20N 51°48' E 003°23'0 0.0
2017-Apr-30 04:53N 51°48' E 003°23'0 0.0
2017-Apr-30 04:14N 51°48' E 003°23'0 0.0
2017-Apr-30 03:09N 51°48' E 003°23'0 0.2
2017-Apr-30 02:54N 51°48' E 003°23'0 0.1
2017-Apr-30 00:33N 51°47' E 003°23'0 0.1
2017-Apr-30 00:30N 51°47' E 003°23'0 0.0
2017-Apr-29 23:57N 51°47' E 003°23'3 7.4
2017-Apr-29 23:30N 51°45' E 003°20'5 9.5
2017-Apr-29 22:57N 51°40' E 003°20'612.9
2017-Apr-29 22:30N 51°34' E 003°24'611.9
2017-Apr-29 22:00N 51°30' E 003°29'611.6
2017-Apr-29 21:30N 51°26' E 003°37'612.1
2017-Apr-29 21:00N 51°22' E 003°44'4 8.1
2017-Apr-29 20:30N 51°20' E 003°49'0 0.0
2017-Apr-29 20:00N 51°20' E 003°49'1 1.4
2017-Apr-29 19:30N 51°19' E 003°50'4 7.9
2017-Apr-29 19:00N 51°15' E 003°49'3 5.7
2017-Apr-29 18:30N 51°12' E 003°48'0 0.0
2017-Apr-29 17:54N 51°12' E 003°48'0 0.0
2017-Apr-29 16:18N 51°12' E 003°48'0 0.0
2017-Apr-29 16:00N 51°12' E 003°48'0 0.0
2017-Apr-29 15:16N 51°12' E 003°48'0 0.0
2017-Apr-29 14:52N 51°12' E 003°48'0 0.0
2017-Apr-29 13:58N 51°12' E 003°48'0 0.0
2017-Apr-29 13:16N 51°12' E 003°48'0 0.0
2017-Apr-29 12:46N 51°12' E 003°48'0 0.0
2017-Apr-29 12:28N 51°12' E 003°48'0 0.0
2017-Apr-29 11:58N 51°12' E 003°48'0 0.0
2017-Apr-29 11:22N 51°12' E 003°48'0 0.0
2017-Apr-29 10:16N 51°12' E 003°48'0 0.0
2017-Apr-29 09:58N 51°12' E 003°48'0 0.0
2017-Apr-29 09:28N 51°12' E 003°48'0 0.0
2017-Apr-29 08:46N 51°12' E 003°48'0 0.0
2017-Apr-29 08:28N 51°12' E 003°48'0 0.0
2017-Apr-29 07:46N 51°12' E 003°48'0 0.0
2017-Apr-29 07:28N 51°12' E 003°48'0 0.0
2017-Apr-29 06:58N 51°12' E 003°48'0 0.0
2017-Apr-29 06:16N 51°12' E 003°48'0 0.0
2017-Apr-29 05:52N 51°12' E 003°48'0 0.0
2017-Apr-29 04:22N 51°12' E 003°48'0 0.0
2017-Apr-29 04:00N 51°12' E 003°48'0 0.0
2017-Apr-29 03:10N 51°12' E 003°48'0 0.0
2017-Apr-29 02:52N 51°12' E 003°48'0 0.0
2017-Apr-29 02:22N 51°12' E 003°48'0 0.0
2017-Apr-29 01:58N 51°12' E 003°48'0 0.0
2017-Apr-29 01:28N 51°12' E 003°48'0 0.0
2017-Apr-29 00:58N 51°12' E 003°48'0 0.0
2017-Apr-29 00:28N 51°12' E 003°48'0 0.0
2017-Apr-28 23:52N 51°12' E 003°48'0 0.0
2017-Apr-28 23:22N 51°12' E 003°48'0 0.0
2017-Apr-28 22:40N 51°12' E 003°48'0 0.0
2017-Apr-28 22:22N 51°12' E 003°48'0 0.0
2017-Apr-28 21:58N 51°12' E 003°48'0 0.0
2017-Apr-28 21:22N 51°12' E 003°48'0 0.0
2017-Apr-28 20:52N 51°12' E 003°48'0 0.0
2017-Apr-28 20:16N 51°12' E 003°48'0 0.0
2017-Apr-28 19:58N 51°12' E 003°48'0 0.0
2017-Apr-28 19:22N 51°12' E 003°48'0 0.0
2017-Apr-28 18:46N 51°12' E 003°48'0 0.0
2017-Apr-28 18:04N 51°12' E 003°48'0 0.0
2017-Apr-28 17:34N 51°12' E 003°48'0 0.0
2017-Apr-28 17:16N 51°12' E 003°48'0 0.0
2017-Apr-28 16:50N 51°12' E 003°48'0 0.0
2017-Apr-28 16:28N 51°12' E 003°48'0 0.0
2017-Apr-28 13:52N 51°12' E 003°48'0 0.0
2017-Apr-28 13:22N 51°12' E 003°48'0 0.0
2017-Apr-28 12:52N 51°12' E 003°48'0 0.0
2017-Apr-28 12:28N 51°12' E 003°48'0 0.0
2017-Apr-28 11:58N 51°12' E 003°48'0 0.0
2017-Apr-27 12:15N 51°12' E 003°48'0 0.0
2017-Apr-27 12:00N 51°12' E 003°48'2 4.3
2017-Apr-27 11:30N 51°14' E 003°49'3 6.4
2017-Apr-27 10:59N 51°18' E 003°50'2 4.3
2017-Apr-27 10:30N 51°20' E 003°49'0 0.0
2017-Apr-27 10:00N 51°20' E 003°49'1 1.8
2017-Apr-27 09:21N 51°21' E 003°48'2 5.2
2017-Apr-27 09:00N 51°22' E 003°46'8 6.3
2017-Apr-27 07:43N 51°25' E 003°34'1 5.3
2017-Apr-27 07:30N 51°25' E 003°33'5 9.7
2017-Apr-27 07:00N 51°24' E 003°25'510.8
2017-Apr-27 06:30N 51°24' E 003°16'510.8
2017-Apr-27 06:00N 51°24' E 003°08'611.3
2017-Apr-27 05:30N 51°23' E 002°59'612.7
2017-Apr-27 05:00N 51°22' E 002°49'510.8
2017-Apr-27 04:30N 51°22' E 002°40'612.1
2017-Apr-27 04:00N 51°22' E 002°30'3 7.0
2017-Apr-27 03:30N 51°21' E 002°25'510.1
2017-Apr-27 03:00N 51°18' E 002°18'714.3
2017-Apr-27 02:30N 51°14' E 002°09'815.3
2017-Apr-27 02:00N 51°11' E 001°58'815.6
2017-Apr-27 01:30N 51°07' E 001°47'816.3
2017-Apr-27 01:01N 51°01' E 001°38'7314.5
2017-Apr-26 19:58N 50°20' E 000°02'  

Dump ship's entire track history